Time,TemperatureF,DewpointF,PressureIn,WindDirection,WindDirectionDegrees,WindSpeedMPH,WindSpeedGustMPH,Humidity,HourlyPrecipIn,Conditions,Clouds,dailyrainin,SoftwareType,DateUTC
2013-02-19 00:00:00,21.4,0.8,30.15,WSW,247,2.0,4.0,40,0.00,,---,0.00,VWS V13.00,2013-02-19 05:00:00,
2013-02-19 00:01:00,21.4,0.8,30.15,WSW,248,0.0,4.0,40,0.00,,---,0.00,VWS V13.00,2013-02-19 05:01:00,
2013-02-19 00:06:00,21.4,0.8,30.15,WSW,247,2.0,5.0,40,0.00,,---,0.00,VWS V13.00,2013-02-19 05:06:00,
2013-02-19 00:11:00,21.1,0.6,30.15,WSW,246,0.0,3.0,40,0.00,,---,0.00,VWS V13.00,2013-02-19 05:11:00,
2013-02-19 00:16:00,20.8,0.8,30.15,WSW,247,1.0,3.0,41,0.00,,---,0.00,VWS V13.00,2013-02-19 05:16:00,
2013-02-19 00:21:00,20.7,0.7,30.15,WSW,247,2.0,3.0,41,0.00,,---,0.00,VWS V13.00,2013-02-19 05:21:00,
2013-02-19 00:26:00,20.5,0.6,30.15,WSW,247,3.0,3.0,41,0.00,,---,0.00,VWS V13.00,2013-02-19 05:26:00,
2013-02-19 00:31:00,20.3,1.4,30.15,WSW,246,1.0,3.0,43,0.00,,---,0.00,VWS V13.00,2013-02-19 05:31:00,
2013-02-19 00:36:00,20.0,1.6,30.16,WSW,247,3.0,4.0,44,0.00,,---,0.00,VWS V13.00,2013-02-19 05:36:00,
2013-02-19 00:41:00,19.7,1.8,30.16,WSW,247,2.0,4.0,45,0.00,,---,0.00,VWS V13.00,2013-02-19 05:41:00,
2013-02-19 00:46:00,19.7,1.8,30.16,WSW,246,2.0,4.0,45,0.00,,---,0.00,VWS V13.00,2013-02-19 05:46:00,
2013-02-19 00:51:00,19.7,1.3,30.16,WSW,245,2.0,4.0,44,0.00,,---,0.00,VWS V13.00,2013-02-19 05:51:00,
2013-02-19 00:56:00,19.8,0.9,30.16,WSW,245,2.0,4.0,43,0.00,,---,0.00,VWS V13.00,2013-02-19 05:56:00,
2013-02-19 01:01:00,19.7,0.8,30.16,WSW,245,2.0,4.0,43,0.00,,---,0.00,VWS V13.00,2013-02-19 06:01:00,
2013-02-19 01:06:00,19.7,2.3,30.17,WSW,245,2.0,4.0,46,0.00,,---,0.00,VWS V13.00,2013-02-19 06:06:00,
2013-02-19 01:11:00,19.2,2.7,30.17,WSW,245,3.0,3.0,48,0.00,,---,0.00,VWS V13.00,2013-02-19 06:11:00,
2013-02-19 01:16:00,19.3,1.9,30.17,WSW,241,4.0,5.0,46,0.00,,---,0.00,VWS V13.00,2013-02-19 06:16:00,
2013-02-19 01:21:00,19.7,2.8,30.17,WSW,241,2.0,5.0,47,0.00,,---,0.00,VWS V13.00,2013-02-19 06:21:00,
2013-02-19 01:26:00,19.5,2.1,30.17,WSW,241,0.0,5.0,46,0.00,,---,0.00,VWS V13.00,2013-02-19 06:26:00,
2013-02-19 01:31:00,19.3,3.3,30.17,WSW,241,3.0,5.0,49,0.00,,---,0.00,VWS V13.00,2013-02-19 06:31:00,
2013-02-19 01:36:00,19.1,2.2,30.18,WSW,241,2.0,5.0,47,0.00,,---,0.00,VWS V13.00,2013-02-19 06:36:00,
2013-02-19 01:41:00,19.1,3.1,30.18,WSW,241,0.0,3.0,49,0.00,,---,0.00,VWS V13.00,2013-02-19 06:41:00,
2013-02-19 01:46:00,19.3,2.8,30.18,WSW,240,1.0,4.0,48,0.00,,---,0.00,VWS V13.00,2013-02-19 06:46:00,
2013-02-19 01:51:00,19.7,3.2,30.17,WSW,240,0.0,4.0,48,0.00,,---,0.00,VWS V13.00,2013-02-19 06:51:00,
2013-02-19 01:56:00,19.7,3.7,30.17,WSW,240,1.0,4.0,49,0.00,,---,0.00,VWS V13.00,2013-02-19 06:56:00,
2013-02-19 02:01:00,19.7,4.1,30.17,WSW,240,1.0,4.0,50,0.00,,---,0.00,VWS V13.00,2013-02-19 07:01:00,
2013-02-19 02:06:00,19.7,4.5,30.18,WSW,240,1.0,4.0,51,0.00,,---,0.00,VWS V13.00,2013-02-19 07:06:00,
2013-02-19 02:11:00,19.7,4.5,30.18,WSW,240,2.0,4.0,51,0.00,,---,0.00,VWS V13.00,2013-02-19 07:11:00,
2013-02-19 02:16:00,19.7,4.9,30.18,WSW,240,3.0,4.0,52,0.00,,---,0.00,VWS V13.00,2013-02-19 07:16:00,
2013-02-19 02:21:00,19.7,4.1,30.18,WSW,240,2.0,4.0,50,0.00,,---,0.00,VWS V13.00,2013-02-19 07:21:00,
2013-02-19 02:26:00,19.8,4.6,30.18,WSW,240,0.0,4.0,51,0.00,,---,0.00,VWS V13.00,2013-02-19 07:26:00,
2013-02-19 02:31:00,19.9,4.7,30.19,WSW,240,2.0,4.0,51,0.00,,---,0.00,VWS V13.00,2013-02-19 07:31:00,
2013-02-19 02:36:00,19.9,4.3,30.18,WSW,238,1.0,5.0,50,0.00,,---,0.00,VWS V13.00,2013-02-19 07:36:00,
2013-02-19 02:41:00,20.0,3.9,30.18,WSW,237,3.0,4.0,49,0.00,,---,0.00,VWS V13.00,2013-02-19 07:41:00,
2013-02-19 02:46:00,19.9,4.3,30.18,WSW,238,1.0,4.0,50,0.00,,---,0.00,VWS V13.00,2013-02-19 07:46:00,
2013-02-19 02:51:00,19.7,4.5,30.17,WSW,238,0.0,4.0,51,0.00,,---,0.00,VWS V13.00,2013-02-19 07:51:00,
2013-02-19 02:56:00,19.5,3.9,30.17,WSW,237,0.0,4.0,50,0.00,,---,0.00,VWS V13.00,2013-02-19 07:56:00,
2013-02-19 03:01:00,19.4,3.4,30.18,WSW,238,0.0,4.0,49,0.00,,---,0.00,VWS V13.00,2013-02-19 08:01:00,
2013-02-19 03:06:00,19.6,4.0,30.18,WSW,238,0.0,4.0,50,0.00,,---,0.00,VWS V13.00,2013-02-19 08:06:00,
2013-02-19 03:11:00,19.8,4.2,30.18,WSW,240,2.0,4.0,50,0.00,,---,0.00,VWS V13.00,2013-02-19 08:11:00,
2013-02-19 03:16:00,20.1,4.5,30.18,WSW,240,1.0,4.0,50,0.00,,---,0.00,VWS V13.00,2013-02-19 08:16:00,
2013-02-19 03:21:00,20.2,4.1,30.18,WSW,240,1.0,4.0,49,0.00,,---,0.00,VWS V13.00,2013-02-19 08:21:00,
2013-02-19 03:26:00,20.2,3.7,30.18,WSW,240,1.0,4.0,48,0.00,,---,0.00,VWS V13.00,2013-02-19 08:26:00,
2013-02-19 03:31:00,20.2,3.7,30.18,WSW,240,1.0,4.0,48,0.00,,---,0.00,VWS V13.00,2013-02-19 08:31:00,
2013-02-19 03:36:00,20.2,4.1,30.17,WSW,240,1.0,4.0,49,0.00,,---,0.00,VWS V13.00,2013-02-19 08:36:00,
2013-02-19 03:41:00,20.4,4.3,30.17,WSW,240,1.0,3.0,49,0.00,,---,0.00,VWS V13.00,2013-02-19 08:41:00,
2013-02-19 03:46:00,20.6,4.9,30.17,WSW,240,2.0,3.0,50,0.00,,---,0.00,VWS V13.00,2013-02-19 08:46:00,
2013-02-19 03:51:00,20.8,4.2,30.17,WSW,240,1.0,3.0,48,0.00,,---,0.00,VWS V13.00,2013-02-19 08:51:00,
2013-02-19 03:56:00,21.0,3.9,30.17,WSW,240,0.0,3.0,47,0.00,,---,0.00,VWS V13.00,2013-02-19 08:56:00,
2013-02-19 04:01:00,21.2,4.6,30.17,WSW,240,0.0,3.0,48,0.00,,---,0.00,VWS V13.00,2013-02-19 09:01:00,
2013-02-19 04:06:00,21.3,5.1,30.17,WSW,240,0.0,4.0,49,0.00,,---,0.00,VWS V13.00,2013-02-19 09:06:00,
2013-02-19 04:11:00,21.3,4.7,30.17,WSW,240,0.0,4.0,48,0.00,,---,0.00,VWS V13.00,2013-02-19 09:11:00,
2013-02-19 04:16:00,21.5,5.8,30.17,WSW,240,1.0,4.0,50,0.00,,---,0.00,VWS V13.00,2013-02-19 09:16:00,
2013-02-19 04:21:00,21.6,6.7,30.17,WSW,240,2.0,4.0,52,0.00,,---,0.00,VWS V13.00,2013-02-19 09:21:00,
2013-02-19 04:26:00,21.5,6.2,30.16,WSW,240,0.0,4.0,51,0.00,,---,0.00,VWS V13.00,2013-02-19 09:26:00,
2013-02-19 04:31:00,21.3,5.6,30.16,WSW,240,1.0,4.0,50,0.00,,---,0.00,VWS V13.00,2013-02-19 09:31:00,
2013-02-19 04:36:00,21.1,5.8,30.16,WSW,240,1.0,4.0,51,0.00,,---,0.00,VWS V13.00,2013-02-19 09:36:00,
2013-02-19 04:41:00,20.8,6.4,30.15,WSW,240,1.0,3.0,53,0.00,,---,0.00,VWS V13.00,2013-02-19 09:41:00,
2013-02-19 04:46:00,20.5,6.1,30.15,WSW,240,0.0,3.0,53,0.00,,---,0.00,VWS V13.00,2013-02-19 09:46:00,
2013-02-19 04:51:00,20.3,5.9,30.15,WSW,243,1.0,5.0,53,0.00,,---,0.00,VWS V13.00,2013-02-19 09:51:00,
2013-02-19 04:56:00,20.3,7.5,30.15,WSW,244,1.0,5.0,57,0.00,,---,0.00,VWS V13.00,2013-02-19 09:56:00,
2013-02-19 05:01:00,20.4,8.0,30.14,WSW,244,0.0,5.0,58,0.00,,---,0.00,VWS V13.00,2013-02-19 10:01:00,
2013-02-19 05:06:00,20.5,9.2,30.14,WSW,244,0.0,5.0,61,0.00,,---,0.00,VWS V13.00,2013-02-19 10:06:00,
2013-02-19 05:11:00,20.6,9.7,30.14,WSW,244,1.0,3.0,62,0.00,,---,0.00,VWS V13.00,2013-02-19 10:11:00,
2013-02-19 05:16:00,20.6,7.8,30.14,WSW,244,0.0,4.0,57,0.00,,---,0.00,VWS V13.00,2013-02-19 10:16:00,
2013-02-19 05:21:00,20.9,7.7,30.14,WSW,244,0.0,4.0,56,0.00,,---,0.00,VWS V13.00,2013-02-19 10:21:00,
2013-02-19 05:26:00,21.0,8.9,30.14,WSW,244,0.0,4.0,59,0.00,,---,0.00,VWS V13.00,2013-02-19 10:26:00,
2013-02-19 05:31:00,21.0,8.2,30.14,WSW,244,0.0,4.0,57,0.00,,---,0.00,VWS V13.00,2013-02-19 10:31:00,
2013-02-19 05:36:00,20.9,7.7,30.14,WSW,244,1.0,4.0,56,0.00,,---,0.00,VWS V13.00,2013-02-19 10:36:00,
2013-02-19 05:41:00,20.8,6.4,30.14,WSW,244,0.0,2.0,53,0.00,,---,0.00,VWS V13.00,2013-02-19 10:41:00,
2013-02-19 05:46:00,20.7,7.1,30.14,WSW,244,0.0,2.0,55,0.00,,---,0.00,VWS V13.00,2013-02-19 10:46:00,
2013-02-19 05:51:00,20.6,7.4,30.14,WSW,244,0.0,2.0,56,0.00,,---,0.00,VWS V13.00,2013-02-19 10:51:00,
2013-02-19 05:56:00,20.4,6.8,30.15,WSW,244,0.0,2.0,55,0.00,,---,0.00,VWS V13.00,2013-02-19 10:56:00,
2013-02-19 06:01:00,20.2,6.6,30.14,WSW,244,0.0,2.0,55,0.00,,---,0.00,VWS V13.00,2013-02-19 11:01:00,
2013-02-19 06:06:00,19.7,5.8,30.14,WSW,244,1.0,3.0,54,0.00,,---,0.00,VWS V13.00,2013-02-19 11:06:00,
2013-02-19 06:11:00,19.5,5.6,30.14,WSW,244,0.0,1.0,54,0.00,,---,0.00,VWS V13.00,2013-02-19 11:11:00,
2013-02-19 06:16:00,19.3,5.0,30.14,WSW,244,0.0,1.0,53,0.00,,---,0.00,VWS V13.00,2013-02-19 11:16:00,
2013-02-19 06:21:00,19.1,4.8,30.14,WSW,244,0.0,1.0,53,0.00,,---,0.00,VWS V13.00,2013-02-19 11:21:00,
2013-02-19 06:26:00,19.0,5.5,30.14,WSW,244,0.0,1.0,55,0.00,,---,0.00,VWS V13.00,2013-02-19 11:26:00,
2013-02-19 06:31:00,19.0,7.1,30.14,WSW,244,0.0,1.0,59,0.00,,---,0.00,VWS V13.00,2013-02-19 11:31:00,
2013-02-19 06:36:00,18.8,6.1,30.14,WSW,244,0.0,1.0,57,0.00,,---,0.00,VWS V13.00,2013-02-19 11:36:00,
2013-02-19 06:41:00,18.7,4.8,30.15,WSW,244,0.0,1.0,54,0.00,,---,0.00,VWS V13.00,2013-02-19 11:41:00,
2013-02-19 06:46:00,18.6,4.3,30.15,WSW,244,0.0,1.0,53,0.00,,---,0.00,VWS V13.00,2013-02-19 11:46:00,
2013-02-19 06:51:00,18.6,4.3,30.15,WSW,244,0.0,1.0,53,0.00,,---,0.00,VWS V13.00,2013-02-19 11:51:00,
2013-02-19 06:56:00,18.7,4.8,30.15,WSW,244,0.0,1.0,54,0.00,,---,0.00,VWS V13.00,2013-02-19 11:56:00,
2013-02-19 07:01:00,18.8,4.9,30.14,WSW,244,0.0,1.0,54,0.00,,---,0.00,VWS V13.00,2013-02-19 12:01:00,
2013-02-19 07:06:00,19.0,4.7,30.14,WSW,244,0.0,1.0,53,0.00,,---,0.00,VWS V13.00,2013-02-19 12:06:00,
2013-02-19 07:11:00,19.3,4.6,30.14,WSW,244,0.0,1.0,52,0.00,,---,0.00,VWS V13.00,2013-02-19 12:11:00,
2013-02-19 07:16:00,19.7,3.7,30.13,WSW,244,0.0,1.0,49,0.00,,---,0.00,VWS V13.00,2013-02-19 12:16:00,
2013-02-19 07:21:00,20.2,6.2,30.13,WSW,244,0.0,1.0,54,0.00,,---,0.00,VWS V13.00,2013-02-19 12:21:00,
2013-02-19 07:26:00,20.3,7.5,30.13,WSW,244,0.0,1.0,57,0.00,,---,0.00,VWS V13.00,2013-02-19 12:26:00,
2013-02-19 07:31:00,20.3,6.7,30.13,WSW,244,0.0,1.0,55,0.00,,---,0.00,VWS V13.00,2013-02-19 12:31:00,
2013-02-19 07:36:00,20.4,5.2,30.13,WSW,244,0.0,1.0,51,0.00,,---,0.00,VWS V13.00,2013-02-19 12:36:00,
2013-02-19 07:41:00,20.5,6.1,30.12,WSW,244,0.0,0.0,53,0.00,,---,0.00,VWS V13.00,2013-02-19 12:41:00,
2013-02-19 07:46:00,20.7,7.1,30.13,WSW,244,0.0,0.0,55,0.00,,---,0.00,VWS V13.00,2013-02-19 12:46:00,
2013-02-19 07:51:00,21.0,5.7,30.12,WSW,244,0.0,0.0,51,0.00,,---,0.00,VWS V13.00,2013-02-19 12:51:00,
2013-02-19 07:56:00,21.3,6.8,30.13,WSW,244,0.0,0.0,53,0.00,,---,0.00,VWS V13.00,2013-02-19 12:56:00,
2013-02-19 08:01:00,21.7,5.9,30.12,WSW,244,0.0,0.0,50,0.00,,---,0.00,VWS V13.00,2013-02-19 13:01:00,
2013-02-19 08:06:00,22.4,6.2,30.12,WSW,244,0.0,0.0,49,0.00,,---,0.00,VWS V13.00,2013-02-19 13:06:00,
2013-02-19 08:11:00,23.1,6.3,30.11,WSW,244,0.0,0.0,48,0.00,,---,0.00,VWS V13.00,2013-02-19 13:11:00,
2013-02-19 08:16:00,23.8,7.0,30.11,WSW,244,0.0,2.0,48,0.00,,---,0.00,VWS V13.00,2013-02-19 13:16:00,
2013-02-19 08:21:00,24.2,7.3,30.11,WSW,244,1.0,2.0,48,0.00,,---,0.00,VWS V13.00,2013-02-19 13:21:00,
2013-02-19 08:26:00,24.6,7.7,30.11,WSW,244,1.0,3.0,48,0.00,,---,0.00,VWS V13.00,2013-02-19 13:26:00,
2013-02-19 08:31:00,24.9,8.0,30.11,WSW,244,3.0,3.0,48,0.00,,---,0.00,VWS V13.00,2013-02-19 13:31:00,
2013-02-19 08:36:00,24.9,8.0,30.11,WSW,244,1.0,3.0,48,0.00,,---,0.00,VWS V13.00,2013-02-19 13:36:00,
2013-02-19 08:41:00,24.9,8.0,30.11,WSW,241,2.0,4.0,48,0.00,,---,0.00,VWS V13.00,2013-02-19 13:41:00,
2013-02-19 08:46:00,25.1,7.2,30.11,WSW,238,1.0,5.0,46,0.00,,---,0.00,VWS V13.00,2013-02-19 13:46:00,
2013-02-19 08:51:00,25.8,8.4,30.11,WSW,238,1.0,5.0,47,0.00,,---,0.00,VWS V13.00,2013-02-19 13:51:00,
2013-02-19 08:56:00,27.0,8.5,30.10,WSW,238,0.0,5.0,45,0.00,,---,0.00,VWS V13.00,2013-02-19 13:56:00,
2013-02-19 09:01:00,27.9,9.3,30.10,WSW,237,0.0,5.0,45,0.00,,---,0.00,VWS V13.00,2013-02-19 14:01:00,
2013-02-19 09:06:00,28.5,8.9,30.10,WSW,237,1.0,5.0,43,0.00,,---,0.00,VWS V13.00,2013-02-19 14:06:00,
2013-02-19 09:11:00,28.7,9.1,30.10,WSW,237,1.0,3.0,43,0.00,,---,0.00,VWS V13.00,2013-02-19 14:11:00,
2013-02-19 09:16:00,29.0,9.3,30.10,SW,236,0.0,4.0,43,0.00,,---,0.00,VWS V13.00,2013-02-19 14:16:00,
2013-02-19 09:21:00,29.6,10.4,30.10,SW,236,1.0,4.0,44,0.00,,---,0.00,VWS V13.00,2013-02-19 14:21:00,
2013-02-19 09:26:00,30.5,10.2,30.09,SE,132,1.0,6.0,42,0.00,,---,0.00,VWS V13.00,2013-02-19 14:26:00,
2013-02-19 09:31:00,31.4,11.0,30.09,SE,132,0.0,6.0,42,0.00,,---,0.00,VWS V13.00,2013-02-19 14:31:00,
2013-02-19 09:36:00,32.1,11.1,30.09,SE,134,2.0,6.0,41,0.00,,---,0.00,VWS V13.00,2013-02-19 14:36:00,
2013-02-19 09:41:00,32.7,11.1,30.09,SE,134,0.0,3.0,40,0.00,,---,0.00,VWS V13.00,2013-02-19 14:41:00,
2013-02-19 09:46:00,33.6,11.9,30.09,SE,134,0.0,5.0,40,0.00,,---,0.00,VWS V13.00,2013-02-19 14:46:00,
2013-02-19 09:51:00,34.3,12.5,30.09,SE,134,0.0,5.0,40,0.00,,---,0.00,VWS V13.00,2013-02-19 14:51:00,
2013-02-19 09:56:00,34.5,12.1,30.09,SE,134,2.0,5.0,39,0.00,,---,0.00,VWS V13.00,2013-02-19 14:56:00,
2013-02-19 10:01:00,35.3,13.4,30.09,SE,142,2.0,5.0,40,0.00,,---,0.00,VWS V13.00,2013-02-19 15:01:00,
2013-02-19 10:06:00,35.8,12.7,30.08,SE,143,0.0,6.0,38,0.00,,---,0.00,VWS V13.00,2013-02-19 15:06:00,
2013-02-19 10:11:00,35.8,12.7,30.08,SE,141,1.0,3.0,38,0.00,,---,0.00,VWS V13.00,2013-02-19 15:11:00,
2013-02-19 10:16:00,36.0,14.0,30.08,SE,143,0.0,3.0,40,0.00,,---,0.00,VWS V13.00,2013-02-19 15:16:00,
2013-02-19 10:21:00,36.5,13.3,30.07,SE,143,1.0,4.0,38,0.00,,---,0.00,VWS V13.00,2013-02-19 15:21:00,
2013-02-19 10:26:00,36.0,13.5,30.07,SE,143,0.0,4.0,39,0.00,,---,0.00,VWS V13.00,2013-02-19 15:26:00,
2013-02-19 10:31:00,35.4,14.1,30.07,SE,142,3.0,5.0,41,0.00,,---,0.00,VWS V13.00,2013-02-19 15:31:00,
2013-02-19 10:36:00,35.2,13.3,30.07,SSE,148,4.0,7.0,40,0.00,,---,0.00,VWS V13.00,2013-02-19 15:36:00,
2013-02-19 10:41:00,35.3,14.0,30.07,SE,138,0.0,7.0,41,0.00,,---,0.00,VWS V13.00,2013-02-19 15:41:00,
2013-02-19 10:46:00,35.4,14.1,30.07,SE,135,1.0,7.0,41,0.00,,---,0.00,VWS V13.00,2013-02-19 15:46:00,
2013-02-19 10:51:00,35.5,14.1,30.06,SE,136,1.0,7.0,41,0.00,,---,0.00,VWS V13.00,2013-02-19 15:51:00,
2013-02-19 10:56:00,35.6,15.3,30.06,SE,136,1.0,7.0,43,0.00,,---,0.00,VWS V13.00,2013-02-19 15:56:00,
2013-02-19 11:01:00,35.4,14.1,30.06,SE,140,3.0,7.0,41,0.00,,---,0.00,VWS V13.00,2013-02-19 16:01:00,
2013-02-19 11:06:00,35.4,14.6,30.06,SSE,153,2.0,7.0,42,0.00,,---,0.00,VWS V13.00,2013-02-19 16:06:00,
2013-02-19 11:11:00,35.1,14.9,30.06,SSE,153,3.0,5.0,43,0.00,,---,0.00,VWS V13.00,2013-02-19 16:11:00,
2013-02-19 11:16:00,35.3,15.1,30.06,South,173,4.0,6.0,43,0.00,,---,0.00,VWS V13.00,2013-02-19 16:16:00,
2013-02-19 11:21:00,35.5,15.8,30.06,South,171,4.0,6.0,44,0.00,,---,0.00,VWS V13.00,2013-02-19 16:21:00,
2013-02-19 11:26:00,35.4,15.1,30.06,SSE,166,1.0,6.0,43,0.00,,---,0.00,VWS V13.00,2013-02-19 16:26:00,
2013-02-19 11:31:00,35.7,15.4,30.06,SSE,164,0.0,6.0,43,0.00,,---,0.00,VWS V13.00,2013-02-19 16:31:00,
2013-02-19 11:36:00,36.1,15.8,30.05,SSE,162,2.0,9.0,43,0.00,,---,0.00,VWS V13.00,2013-02-19 16:36:00,
2013-02-19 11:41:00,36.6,16.2,30.04,SSE,161,2.0,4.0,43,0.00,,---,0.00,VWS V13.00,2013-02-19 16:41:00,
2013-02-19 11:46:00,36.9,17.6,30.03,SSE,163,0.0,6.0,45,0.00,,---,0.00,VWS V13.00,2013-02-19 16:46:00,
2013-02-19 11:51:00,36.5,16.7,30.03,SE,134,2.0,7.0,44,0.00,,---,0.00,VWS V13.00,2013-02-19 16:51:00,
2013-02-19 11:56:00,36.5,16.7,30.02,SE,134,2.0,7.0,44,0.00,,---,0.00,VWS V13.00,2013-02-19 16:56:00,
2013-02-19 12:01:00,36.5,17.2,30.02,SE,135,3.0,7.0,45,0.00,,---,0.00,VWS V13.00,2013-02-19 17:01:00,
2013-02-19 12:06:00,36.7,17.9,30.02,SE,136,4.0,7.0,46,0.00,,---,0.00,VWS V13.00,2013-02-19 17:06:00,
2013-02-19 12:11:00,37.2,18.3,30.01,South,176,1.0,7.0,46,0.00,,---,0.00,VWS V13.00,2013-02-19 17:11:00,
2013-02-19 12:16:00,37.8,17.9,30.01,SSE,159,3.0,7.0,44,0.00,,---,0.00,VWS V13.00,2013-02-19 17:16:00,
2013-02-19 12:21:00,38.3,18.8,30.02,SSE,155,1.0,7.0,45,0.00,,---,0.00,VWS V13.00,2013-02-19 17:21:00,
2013-02-19 12:26:00,38.3,18.8,30.01,SSE,150,1.0,7.0,45,0.00,,---,0.00,VWS V13.00,2013-02-19 17:26:00,
2013-02-19 12:31:00,38.2,19.3,30.01,SE,137,7.0,9.0,46,0.00,,---,0.00,VWS V13.00,2013-02-19 17:31:00,
2013-02-19 12:36:00,38.3,19.9,30.00,SSE,155,5.0,11.0,47,0.00,,---,0.00,VWS V13.00,2013-02-19 17:36:00,
2013-02-19 12:41:00,38.1,20.2,30.00,SSE,155,5.0,6.0,48,0.00,,---,0.00,VWS V13.00,2013-02-19 17:41:00,
2013-02-19 12:46:00,38.3,19.4,30.00,SSE,155,2.0,6.0,46,0.00,,---,0.00,VWS V13.00,2013-02-19 17:46:00,
2013-02-19 12:51:00,38.8,19.8,30.00,SSE,156,2.0,6.0,46,0.00,,---,0.00,VWS V13.00,2013-02-19 17:51:00,
2013-02-19 12:56:00,39.2,20.7,29.99,SSE,159,4.0,6.0,47,0.00,,---,0.00,VWS V13.00,2013-02-19 17:56:00,
2013-02-19 13:01:00,39.8,20.7,29.99,SE,132,2.0,6.0,46,0.00,,---,0.00,VWS V13.00,2013-02-19 18:01:00,
2013-02-19 13:06:00,39.7,21.6,29.98,SE,142,0.0,6.0,48,0.00,,---,0.00,VWS V13.00,2013-02-19 18:06:00,
2013-02-19 13:11:00,39.6,22.0,29.98,SSE,168,0.0,6.0,49,0.00,,---,0.00,VWS V13.00,2013-02-19 18:11:00,
2013-02-19 13:16:00,39.5,22.4,29.97,SE,133,2.0,6.0,50,0.00,,---,0.00,VWS V13.00,2013-02-19 18:16:00,
2013-02-19 13:21:00,39.1,23.0,29.97,East,87,3.0,7.0,52,0.00,,---,0.00,VWS V13.00,2013-02-19 18:21:00,
2013-02-19 13:26:00,38.9,23.2,29.96,SE,136,2.0,9.0,53,0.00,,---,0.00,VWS V13.00,2013-02-19 18:26:00,
2013-02-19 13:31:00,38.7,23.5,29.97,SSE,160,1.0,12.0,54,0.00,,---,0.00,VWS V13.00,2013-02-19 18:31:00,
2013-02-19 13:36:00,38.5,23.3,29.96,SE,142,5.0,12.0,54,0.00,,---,0.00,VWS V13.00,2013-02-19 18:36:00,
2013-02-19 13:41:00,38.5,24.2,29.96,SSE,164,2.0,6.0,56,0.00,,---,0.00,VWS V13.00,2013-02-19 18:41:00,
2013-02-19 13:46:00,38.5,24.6,29.96,South,169,1.0,7.0,57,0.00,,---,0.00,VWS V13.00,2013-02-19 18:46:00,
2013-02-19 13:51:00,38.5,24.2,29.96,ESE,115,2.0,7.0,56,0.00,,---,0.00,VWS V13.00,2013-02-19 18:51:00,
2013-02-19 13:56:00,38.5,25.0,29.96,East,95,2.0,9.0,58,0.00,,---,0.00,VWS V13.00,2013-02-19 18:56:00,
2013-02-19 14:01:00,38.4,24.9,29.95,SE,133,4.0,9.0,58,0.00,,---,0.00,VWS V13.00,2013-02-19 19:01:00,
2013-02-19 14:06:00,38.6,25.9,29.95,ESE,121,2.0,12.0,60,0.00,,---,0.00,VWS V13.00,2013-02-19 19:06:00,
2013-02-19 14:11:00,38.6,25.9,29.94,SE,136,2.0,4.0,60,0.00,,---,0.00,VWS V13.00,2013-02-19 19:11:00,
2013-02-19 14:16:00,38.7,26.4,29.94,SSE,148,3.0,5.0,61,0.00,,---,0.00,VWS V13.00,2013-02-19 19:16:00,
2013-02-19 14:21:00,38.9,26.2,29.94,SE,132,3.0,7.0,60,0.00,,---,0.00,VWS V13.00,2013-02-19 19:21:00,
2013-02-19 14:26:00,39.2,26.5,29.93,SSE,148,2.0,7.0,60,0.00,,---,0.00,VWS V13.00,2013-02-19 19:26:00,
2013-02-19 14:31:00,39.3,26.6,29.93,SSE,166,3.0,7.0,60,0.00,,---,0.00,VWS V13.00,2013-02-19 19:31:00,
2013-02-19 14:36:00,39.3,26.6,29.94,South,173,4.0,9.0,60,0.00,,---,0.00,VWS V13.00,2013-02-19 19:36:00,
2013-02-19 14:41:00,39.3,27.0,29.93,SSE,151,3.0,7.0,61,0.00,,---,0.00,VWS V13.00,2013-02-19 19:41:00,
2013-02-19 14:46:00,39.2,27.7,29.92,South,169,2.0,7.0,63,0.00,,---,0.00,VWS V13.00,2013-02-19 19:46:00,
2013-02-19 14:51:00,39.1,27.2,29.92,South,190,6.0,7.0,62,0.00,,---,0.00,VWS V13.00,2013-02-19 19:51:00,
2013-02-19 14:56:00,39.2,27.7,29.91,East,89,5.0,7.0,63,0.00,,---,0.00,VWS V13.00,2013-02-19 19:56:00,
2013-02-19 15:01:00,39.2,27.7,29.91,SE,139,3.0,7.0,63,0.00,,---,0.00,VWS V13.00,2013-02-19 20:01:00,
2013-02-19 15:06:00,39.2,28.1,29.90,SE,140,3.0,7.0,64,0.00,,---,0.00,VWS V13.00,2013-02-19 20:06:00,
2013-02-19 15:11:00,39.4,27.9,29.89,SE,140,2.0,4.0,63,0.00,,---,0.00,VWS V13.00,2013-02-19 20:11:00,
2013-02-19 15:16:00,39.4,27.9,29.89,SE,128,2.0,6.0,63,0.00,,---,0.00,VWS V13.00,2013-02-19 20:16:00,
2013-02-19 15:21:00,39.5,28.0,29.89,SE,135,1.0,6.0,63,0.00,,---,0.00,VWS V13.00,2013-02-19 20:21:00,
2013-02-19 15:26:00,39.6,28.4,29.88,SE,134,2.0,6.0,64,0.00,,---,0.00,VWS V13.00,2013-02-19 20:26:00,
2013-02-19 15:31:00,39.5,28.4,29.88,ESE,117,2.0,7.0,64,0.00,,---,0.00,VWS V13.00,2013-02-19 20:31:00,
2013-02-19 15:36:00,39.4,28.2,29.87,ESE,117,1.0,7.0,64,0.00,,---,0.00,VWS V13.00,2013-02-19 20:36:00,
2013-02-19 15:41:00,39.4,28.6,29.87,SE,126,2.0,4.0,65,0.00,,---,0.00,VWS V13.00,2013-02-19 20:41:00,
2013-02-19 15:46:00,39.5,28.7,29.86,SE,128,2.0,5.0,65,0.00,,---,0.00,VWS V13.00,2013-02-19 20:46:00,
2013-02-19 15:51:00,39.7,28.9,29.86,SE,131,0.0,5.0,65,0.00,,---,0.00,VWS V13.00,2013-02-19 20:51:00,
2013-02-19 15:56:00,39.7,29.3,29.86,SE,134,1.0,5.0,66,0.00,,---,0.00,VWS V13.00,2013-02-19 20:56:00,
2013-02-19 16:01:00,39.7,28.9,29.86,SE,134,2.0,5.0,65,0.00,,---,0.00,VWS V13.00,2013-02-19 21:01:00,
2013-02-19 16:06:00,40.0,29.2,29.85,SE,145,1.0,5.0,65,0.00,,---,0.00,VWS V13.00,2013-02-19 21:06:00,
2013-02-19 16:11:00,40.0,29.2,29.84,SE,136,5.0,5.0,65,0.00,,---,0.00,VWS V13.00,2013-02-19 21:11:00,
2013-02-19 16:16:00,40.0,28.4,29.85,ESE,116,2.0,6.0,63,0.00,,---,0.00,VWS V13.00,2013-02-19 21:16:00,
2013-02-19 16:21:00,39.8,28.2,29.84,ESE,122,1.0,7.0,63,0.00,,---,0.00,VWS V13.00,2013-02-19 21:21:00,
2013-02-19 16:26:00,39.5,28.4,29.84,ESE,111,2.0,7.0,64,0.00,,---,0.00,VWS V13.00,2013-02-19 21:26:00,
2013-02-19 16:31:00,39.4,28.6,29.84,ESE,115,3.0,7.0,65,0.00,,---,0.00,VWS V13.00,2013-02-19 21:31:00,
2013-02-19 16:36:00,39.2,28.4,29.84,SE,124,1.0,7.0,65,0.00,,---,0.00,VWS V13.00,2013-02-19 21:36:00,
2013-02-19 16:41:00,39.0,28.6,29.84,SE,144,2.0,8.0,66,0.00,,---,0.00,VWS V13.00,2013-02-19 21:41:00,
2013-02-19 16:46:00,38.8,28.4,29.84,ESE,122,2.0,8.0,66,0.00,,---,0.00,VWS V13.00,2013-02-19 21:46:00,
2013-02-19 16:51:00,38.6,28.6,29.84,SE,145,4.0,8.0,67,0.00,,---,0.00,VWS V13.00,2013-02-19 21:51:00,
2013-02-19 16:56:00,38.6,29.0,29.84,SSE,159,3.0,12.0,68,0.00,,---,0.00,VWS V13.00,2013-02-19 21:56:00,
2013-02-19 17:01:00,38.6,29.7,29.84,SSE,163,2.0,12.0,70,0.00,,---,0.00,VWS V13.00,2013-02-19 22:01:00,
2013-02-19 17:06:00,38.6,29.7,29.84,SSE,155,2.0,12.0,70,0.00,,---,0.00,VWS V13.00,2013-02-19 22:06:00,
2013-02-19 17:11:00,38.4,29.8,29.83,SE,146,4.0,5.0,71,0.00,,---,0.00,VWS V13.00,2013-02-19 22:11:00,
2013-02-19 17:16:00,38.2,29.6,29.83,ESE,120,3.0,7.0,71,0.00,,---,0.00,VWS V13.00,2013-02-19 22:16:00,
2013-02-19 17:21:00,38.0,30.1,29.83,SE,126,2.0,7.0,73,0.00,,---,0.00,VWS V13.00,2013-02-19 22:21:00,
2013-02-19 17:26:00,37.9,30.0,29.83,SE,125,2.0,7.0,73,0.00,,---,0.00,VWS V13.00,2013-02-19 22:26:00,
2013-02-19 17:31:00,38.2,30.3,29.82,SE,134,2.0,7.0,73,0.00,,---,0.00,VWS V13.00,2013-02-19 22:31:00,
2013-02-19 17:36:00,38.1,30.6,29.82,ESE,123,2.0,7.0,74,0.00,,---,0.00,VWS V13.00,2013-02-19 22:36:00,
2013-02-19 17:41:00,38.2,31.0,29.82,SE,141,5.0,6.0,75,0.00,,---,0.00,VWS V13.00,2013-02-19 22:41:00,
2013-02-19 17:46:00,38.6,31.4,29.81,SE,128,5.0,11.0,75,0.00,,---,0.00,VWS V13.00,2013-02-19 22:46:00,
2013-02-19 17:51:00,38.6,31.4,29.81,SE,132,3.0,11.0,75,0.00,,---,0.00,VWS V13.00,2013-02-19 22:51:00,
2013-02-19 17:56:00,38.6,31.7,29.81,ESE,111,3.0,11.0,76,0.00,,---,0.00,VWS V13.00,2013-02-19 22:56:00,
2013-02-19 18:01:00,38.9,33.0,29.81,SE,144,2.0,11.0,79,0.00,,---,0.00,VWS V13.00,2013-02-19 23:01:00,
2013-02-19 18:06:00,39.2,33.6,29.80,SSE,162,2.0,11.0,80,0.00,,---,0.00,VWS V13.00,2013-02-19 23:06:00,
2013-02-19 18:11:00,39.1,33.8,29.80,ESE,123,2.0,9.0,81,0.00,,---,0.00,VWS V13.00,2013-02-19 23:11:00,
2013-02-19 18:16:00,39.1,34.4,29.80,SE,145,4.0,9.0,83,0.00,,---,0.00,VWS V13.00,2013-02-19 23:16:00,
2013-02-19 18:21:00,39.5,35.1,29.80,SSE,155,4.0,13.0,84,0.00,,---,0.00,VWS V13.00,2013-02-19 23:21:00,
2013-02-19 18:26:00,39.6,35.5,29.79,SSE,167,1.0,13.0,85,0.00,,---,0.00,VWS V13.00,2013-02-19 23:26:00,
2013-02-19 18:31:00,39.6,35.8,29.79,SSE,164,4.0,13.0,86,0.00,,---,0.00,VWS V13.00,2013-02-19 23:31:00,
2013-02-19 18:36:00,39.5,36.0,29.78,South,172,0.0,13.0,87,0.00,,---,0.00,VWS V13.00,2013-02-19 23:36:00,
2013-02-19 18:41:00,39.3,36.0,29.78,SSE,167,4.0,4.0,88,0.00,,---,0.00,VWS V13.00,2013-02-19 23:41:00,
2013-02-19 18:46:00,39.0,36.0,29.78,SSE,165,2.0,4.0,89,0.00,,---,0.00,VWS V13.00,2013-02-19 23:46:00,
2013-02-19 18:51:00,38.7,36.0,29.77,SE,142,1.0,4.0,90,0.00,,---,0.00,VWS V13.00,2013-02-19 23:51:00,
2013-02-19 18:56:00,38.4,36.0,29.77,SE,142,1.0,4.0,91,0.00,,---,0.00,VWS V13.00,2013-02-19 23:56:00,
2013-02-19 19:01:00,38.4,36.3,29.77,SSE,148,2.0,5.0,92,0.00,,---,0.00,VWS V13.00,2013-02-20 00:01:00,
2013-02-19 19:06:00,38.3,36.2,29.77,SE,125,3.0,6.0,92,0.00,,---,0.00,VWS V13.00,2013-02-20 00:06:00,
2013-02-19 19:11:00,38.1,36.3,29.76,SE,126,1.0,3.0,93,0.01,,---,0.01,VWS V13.00,2013-02-20 00:11:00,
2013-02-19 19:16:00,37.9,36.1,29.75,SE,125,1.0,3.0,93,0.01,,---,0.01,VWS V13.00,2013-02-20 00:16:00,
2013-02-19 19:21:00,37.8,36.0,29.75,SE,125,2.0,3.0,93,0.01,,---,0.01,VWS V13.00,2013-02-20 00:21:00,
2013-02-19 19:26:00,37.7,36.1,29.75,SE,137,2.0,5.0,94,0.02,,---,0.02,VWS V13.00,2013-02-20 00:26:00,
2013-02-19 19:31:00,37.7,36.1,29.74,SE,138,2.0,5.0,94,0.02,,---,0.02,VWS V13.00,2013-02-20 00:31:00,
2013-02-19 19:36:00,37.7,36.1,29.74,SE,144,1.0,5.0,94,0.02,,---,0.02,VWS V13.00,2013-02-20 00:36:00,
2013-02-19 19:41:00,37.6,36.3,29.74,ESE,118,4.0,5.0,95,0.02,,---,0.02,VWS V13.00,2013-02-20 00:41:00,
2013-02-19 19:46:00,37.8,36.5,29.73,SE,146,0.0,5.0,95,0.03,,---,0.03,VWS V13.00,2013-02-20 00:46:00,
2013-02-19 19:51:00,37.9,36.6,29.73,East,79,2.0,5.0,95,0.03,,---,0.03,VWS V13.00,2013-02-20 00:51:00,
2013-02-19 19:56:00,37.9,36.6,29.73,East,96,4.0,5.0,95,0.03,,---,0.03,VWS V13.00,2013-02-20 00:56:00,
2013-02-19 20:01:00,38.0,36.7,29.72,ESE,106,1.0,5.0,95,0.03,,---,0.03,VWS V13.00,2013-02-20 01:01:00,
2013-02-19 20:06:00,38.0,36.7,29.72,ESE,115,1.0,5.0,95,0.04,,---,0.04,VWS V13.00,2013-02-20 01:06:00,
2013-02-19 20:11:00,38.0,36.7,29.71,ESE,122,2.0,3.0,95,0.04,,---,0.04,VWS V13.00,2013-02-20 01:11:00,
2013-02-19 20:16:00,38.1,37.1,29.71,ESE,122,2.0,4.0,96,0.04,,---,0.04,VWS V13.00,2013-02-20 01:16:00,
2013-02-19 20:21:00,38.1,37.1,29.70,SE,125,2.0,4.0,96,0.04,,---,0.04,VWS V13.00,2013-02-20 01:21:00,
2013-02-19 20:26:00,38.1,37.1,29.70,SE,126,2.0,5.0,96,0.04,,---,0.04,VWS V13.00,2013-02-20 01:26:00,
2013-02-19 20:31:00,38.1,37.1,29.70,SE,126,2.0,6.0,96,0.04,,---,0.04,VWS V13.00,2013-02-20 01:31:00,
2013-02-19 20:36:00,38.2,37.2,29.69,SE,146,1.0,7.0,96,0.04,,---,0.04,VWS V13.00,2013-02-20 01:36:00,
2013-02-19 20:41:00,38.2,37.2,29.68,SSE,147,0.0,3.0,96,0.02,,---,0.04,VWS V13.00,2013-02-20 01:41:00,
2013-02-19 20:46:00,38.4,37.4,29.69,SE,140,3.0,6.0,96,0.02,,---,0.04,VWS V13.00,2013-02-20 01:46:00,
2013-02-19 20:51:00,38.6,37.6,29.68,SE,145,2.0,6.0,96,0.02,,---,0.04,VWS V13.00,2013-02-20 01:51:00,
2013-02-19 20:56:00,38.5,37.5,29.69,SE,142,3.0,6.0,96,0.02,,---,0.04,VWS V13.00,2013-02-20 01:56:00,
2013-02-19 21:01:00,38.6,37.6,29.69,SE,144,2.0,6.0,96,0.03,,---,0.05,VWS V13.00,2013-02-20 02:01:00,
2013-02-19 21:06:00,38.6,37.6,29.69,ESE,107,1.0,6.0,96,0.03,,---,0.05,VWS V13.00,2013-02-20 02:06:00,
2013-02-19 21:11:00,38.4,37.4,29.67,ESE,107,0.0,3.0,96,0.01,,---,0.05,VWS V13.00,2013-02-20 02:11:00,
2013-02-19 21:16:00,38.3,37.5,29.66,ESE,107,2.0,3.0,97,0.02,,---,0.06,VWS V13.00,2013-02-20 02:16:00,
2013-02-19 21:21:00,38.2,37.4,29.64,ESE,107,0.0,3.0,97,0.02,,---,0.06,VWS V13.00,2013-02-20 02:21:00,
2013-02-19 21:26:00,38.1,37.1,29.64,ESE,107,0.0,3.0,96,0.02,,---,0.06,VWS V13.00,2013-02-20 02:26:00,
2013-02-19 21:31:00,38.0,37.2,29.62,ESE,107,2.0,3.0,97,0.02,,---,0.06,VWS V13.00,2013-02-20 02:31:00,
2013-02-19 21:36:00,38.1,37.3,29.64,ESE,109,0.0,4.0,97,0.02,,---,0.06,VWS V13.00,2013-02-20 02:36:00,
2013-02-19 21:41:00,38.3,37.5,29.63,ESE,109,0.0,2.0,97,0.02,,---,0.06,VWS V13.00,2013-02-20 02:41:00,
2013-02-19 21:46:00,38.6,37.8,29.63,ESE,109,1.0,3.0,97,0.02,,---,0.06,VWS V13.00,2013-02-20 02:46:00,
2013-02-19 21:51:00,38.9,38.1,29.64,ESE,109,1.0,3.0,97,0.02,,---,0.06,VWS V13.00,2013-02-20 02:51:00,
2013-02-19 21:56:00,38.9,38.1,29.64,ESE,113,1.0,5.0,97,0.02,,---,0.06,VWS V13.00,2013-02-20 02:56:00,
2013-02-19 22:01:00,38.7,37.9,29.63,ESE,113,2.0,5.0,97,0.03,,---,0.07,VWS V13.00,2013-02-20 03:01:00,
2013-02-19 22:06:00,38.7,37.9,29.64,ESE,113,0.0,5.0,97,0.03,,---,0.07,VWS V13.00,2013-02-20 03:06:00,
2013-02-19 22:11:00,38.8,38.0,29.63,ESE,121,0.0,4.0,97,0.02,,---,0.07,VWS V13.00,2013-02-20 03:11:00,
2013-02-19 22:16:00,38.8,38.0,29.62,ESE,121,0.0,4.0,97,0.02,,---,0.07,VWS V13.00,2013-02-20 03:16:00,
2013-02-19 22:21:00,38.8,38.0,29.63,ESE,121,1.0,4.0,97,0.02,,---,0.07,VWS V13.00,2013-02-20 03:21:00,
2013-02-19 22:26:00,38.8,38.0,29.63,ESE,121,1.0,4.0,97,0.03,,---,0.08,VWS V13.00,2013-02-20 03:26:00,
2013-02-19 22:31:00,38.7,37.9,29.62,ESE,122,1.0,4.0,97,0.03,,---,0.08,VWS V13.00,2013-02-20 03:31:00,
2013-02-19 22:36:00,38.6,37.8,29.62,ESE,123,0.0,4.0,97,0.03,,---,0.08,VWS V13.00,2013-02-20 03:36:00,
2013-02-19 22:41:00,38.5,37.7,29.62,ESE,123,0.0,2.0,97,0.02,,---,0.08,VWS V13.00,2013-02-20 03:41:00,
2013-02-19 22:46:00,38.4,37.6,29.63,ESE,122,1.0,4.0,97,0.02,,---,0.08,VWS V13.00,2013-02-20 03:46:00,
2013-02-19 22:51:00,38.4,37.6,29.62,ESE,123,0.0,4.0,97,0.02,,---,0.08,VWS V13.00,2013-02-20 03:51:00,
2013-02-19 22:56:00,38.4,37.6,29.61,ESE,122,0.0,4.0,97,0.03,,---,0.09,VWS V13.00,2013-02-20 03:56:00,
2013-02-19 23:01:00,38.4,37.6,29.60,ESE,123,0.0,4.0,97,0.03,,---,0.09,VWS V13.00,2013-02-20 04:01:00,
2013-02-19 23:06:00,38.5,37.7,29.60,ESE,123,2.0,4.0,97,0.04,,---,0.10,VWS V13.00,2013-02-20 04:06:00,
2013-02-19 23:11:00,38.6,37.8,29.60,ESE,123,2.0,4.0,97,0.03,,---,0.10,VWS V13.00,2013-02-20 04:11:00,
2013-02-19 23:16:00,38.6,37.8,29.60,ESE,123,1.0,4.0,97,0.03,,---,0.10,VWS V13.00,2013-02-20 04:16:00,
2013-02-19 23:21:00,38.5,37.7,29.60,ESE,122,0.0,4.0,97,0.03,,---,0.10,VWS V13.00,2013-02-20 04:21:00,
2013-02-19 23:26:00,38.3,37.5,29.60,ESE,123,1.0,4.0,97,0.03,,---,0.10,VWS V13.00,2013-02-20 04:26:00,
2013-02-19 23:31:00,37.9,37.1,29.60,ESE,122,1.0,4.0,97,0.03,,---,0.10,VWS V13.00,2013-02-20 04:31:00,
2013-02-19 23:36:00,37.7,36.9,29.60,ESE,123,0.0,4.0,97,0.03,,---,0.10,VWS V13.00,2013-02-20 04:36:00,
2013-02-19 23:41:00,37.5,36.7,29.59,ESE,123,1.0,2.0,97,0.02,,---,0.10,VWS V13.00,2013-02-20 04:41:00,
2013-02-19 23:46:00,37.5,36.7,29.59,ESE,122,1.0,2.0,97,0.02,,---,0.10,VWS V13.00,2013-02-20 04:46:00,
2013-02-19 23:51:00,37.4,36.6,29.59,ESE,122,0.0,2.0,97,0.02,,---,0.10,VWS V13.00,2013-02-20 04:51:00,
2013-02-19 23:56:00,37.3,36.5,29.59,ESE,123,0.0,2.0,97,0.02,,---,0.10,VWS V13.00,2013-02-20 04:56:00,